»·PEaware :: N550EM L35-L52

N550EM :: L35-L52

FLIGHT INFORMATION

Flight Status: Arrived
Operator: Privately registered:
United States
More flights under this callsign
Pilot: Keaton B. (19667)
Aircraft: PIPER PA-28R-201 ARROW
(P28R)
More flights by this aircraft type
Origin: L35 Big Bear City
United States
Destination: L52 Oceano Co
United States
More flights between these airports :: More routes between these airports
Route: +L35 EDW LHS FIM RZS L52
File this flight plan on PilotEdge
Remarks: / g
Altitude:
(Current/Filed)
10,000ft
Speed:
(Current/Filed)
120kts
Departed: 09-Oct-18 10:20 AM
Arrived: 09-Oct-18 12:02 PM
Distance/Time
Traveled:
193nm/1:42
Distance/Time
To Go:
Arrived

Flight Plot

Page will automatically refresh every two minutes.

Flight plan parsing failed; only flown route is shown


Map Options




Map Legend


Flown Route
Filed Route
Departure Airport
Arrival Airport
Navaid (VOR, NDB)
Fix

Horizontal Profiles

Position Reports

Time Latitude Longitude Heading Altitude Ground
Speed
09-Oct-18 10:11 34.262440 -116.852724 343 6751ft 0kts
09-Oct-18 10:12 34.262440 -116.852724 343 6751ft 0kts
09-Oct-18 10:13 34.262440 -116.852724 343 6751ft 0kts
09-Oct-18 10:14 34.262440 -116.852724 343 6751ft 0kts
09-Oct-18 10:15 34.262594 -116.852726 5 6751ft 4kts
09-Oct-18 10:16 34.263197 -116.849241 90 6751ft 14kts
09-Oct-18 10:17 34.263111 -116.846613 85 6751ft 0kts
09-Oct-18 10:18 34.263111 -116.846613 85 6751ft 0kts
09-Oct-18 10:19 34.263111 -116.846613 85 6751ft 0kts
09-Oct-18 10:20 34.263111 -116.846613 85 6751ft 0kts
09-Oct-18 10:21 34.263816 -116.846688 276 6751ft 13kts
09-Oct-18 10:22 34.267064 -116.868477 309 7279ft 72kts
09-Oct-18 10:23 34.279240 -116.888005 322 8100ft 74kts
09-Oct-18 10:24 34.294822 -116.907746 310 8907ft 86kts
09-Oct-18 10:25 34.312859 -116.927017 312 9799ft 88kts
09-Oct-18 10:26 34.334392 -116.954043 315 9944ft 135kts
09-Oct-18 10:27 34.362349 -116.986464 315 9941ft 141kts
09-Oct-18 10:28 34.390895 -117.019561 315 9941ft 142kts
09-Oct-18 10:29 34.419445 -117.052670 316 9941ft 142kts
09-Oct-18 10:30 34.447962 -117.085743 316 9941ft 142kts
09-Oct-18 10:31 34.476495 -117.118842 316 9941ft 142kts
09-Oct-18 10:32 34.504991 -117.151903 316 9941ft 142kts
09-Oct-18 10:33 34.533538 -117.185028 316 9941ft 142kts
09-Oct-18 10:34 34.561812 -117.217842 316 9941ft 142kts
09-Oct-18 10:35 34.590344 -117.250962 316 9941ft 142kts
09-Oct-18 10:36 34.618497 -117.283646 316 10038ft 137kts
09-Oct-18 10:37 34.646678 -117.316368 316 10042ft 141kts
09-Oct-18 10:38 34.675069 -117.349339 316 10042ft 141kts
09-Oct-18 10:39 34.703481 -117.382340 316 10042ft 141kts
09-Oct-18 10:40 34.732028 -117.415503 316 10042ft 141kts
09-Oct-18 10:41 34.765239 -117.454089 316 10042ft 141kts
09-Oct-18 10:42 34.787170 -117.483812 311 10042ft 141kts
09-Oct-18 10:43 34.813202 -117.519877 311 10042ft 141kts
09-Oct-18 10:44 34.839287 -117.555784 313 10041ft 142kts
09-Oct-18 10:45 34.866740 -117.590183 314 10042ft 141kts
09-Oct-18 10:46 34.894406 -117.624374 314 10042ft 142kts
09-Oct-18 10:47 34.921894 -117.658284 314 10042ft 142kts
09-Oct-18 10:48 34.949689 -117.692586 314 10042ft 142kts
09-Oct-18 10:49 34.976988 -117.727181 298 10036ft 142kts
09-Oct-18 10:50 34.967564 -117.772522 247 10042ft 141kts
09-Oct-18 10:51 34.952394 -117.816834 246 10042ft 142kts
09-Oct-18 10:52 34.936991 -117.860921 246 10042ft 142kts
09-Oct-18 10:53 34.921495 -117.905034 246 10042ft 142kts
09-Oct-18 10:54 34.905939 -117.949221 246 10042ft 142kts
09-Oct-18 10:55 34.890377 -117.993358 246 10042ft 142kts
09-Oct-18 10:56 34.874838 -118.037363 246 10042ft 142kts
09-Oct-18 10:57 34.859216 -118.081544 246 10042ft 142kts
09-Oct-18 10:58 34.843623 -118.125579 246 10042ft 142kts
09-Oct-18 10:59 34.827981 -118.169689 246 10042ft 142kts
09-Oct-18 11:00 34.812341 -118.213732 246 10042ft 142kts
09-Oct-18 11:01 34.796749 -118.257582 246 10042ft 142kts
09-Oct-18 11:02 34.781101 -118.301529 246 10042ft 142kts
09-Oct-18 11:03 34.765374 -118.345634 246 10042ft 142kts
09-Oct-18 11:04 34.749691 -118.389555 246 10042ft 142kts
09-Oct-18 11:05 34.733920 -118.433663 246 10042ft 142kts
09-Oct-18 11:06 34.718210 -118.477537 246 10042ft 142kts
09-Oct-18 11:07 34.702461 -118.521462 246 10042ft 142kts
09-Oct-18 11:08 34.686670 -118.565441 246 10042ft 142kts
09-Oct-18 11:09 34.659074 -118.598487 217 10042ft 142kts
09-Oct-18 11:10 34.627859 -118.627830 217 10046ft 141kts
09-Oct-18 11:11 34.597565 -118.656188 217 10060ft 141kts
09-Oct-18 11:12 34.566498 -118.685226 217 10060ft 142kts
09-Oct-18 11:13 34.535112 -118.714528 217 10060ft 142kts
09-Oct-18 11:14 34.503890 -118.743646 217 10060ft 142kts
09-Oct-18 11:15 34.472653 -118.772750 217 10060ft 142kts
09-Oct-18 11:16 34.441364 -118.801875 217 10060ft 142kts
09-Oct-18 11:17 34.410060 -118.830985 217 10060ft 142kts
09-Oct-18 11:18 34.378740 -118.860081 217 10060ft 142kts
09-Oct-18 11:19 34.360378 -118.897175 277 10059ft 141kts
09-Oct-18 11:20 34.367536 -118.943858 281 10060ft 142kts
09-Oct-18 11:21 34.375531 -118.990682 281 10060ft 142kts
09-Oct-18 11:22 34.383659 -119.037498 281 10060ft 142kts
09-Oct-18 11:23 34.391787 -119.084238 281 10060ft 142kts
09-Oct-18 11:24 34.399911 -119.131030 281 10060ft 142kts
09-Oct-18 11:25 34.408045 -119.177984 281 10060ft 142kts
09-Oct-18 11:26 34.416151 -119.224890 281 10060ft 142kts
09-Oct-18 11:27 34.424239 -119.271807 281 10060ft 142kts
09-Oct-18 11:28 34.432292 -119.318630 281 10060ft 142kts
09-Oct-18 11:29 34.440329 -119.365472 281 10060ft 142kts
09-Oct-18 11:30 34.448375 -119.412483 281 10060ft 142kts
09-Oct-18 11:31 34.456381 -119.459376 281 10060ft 142kts
09-Oct-18 11:32 34.464400 -119.506456 281 10060ft 142kts
09-Oct-18 11:33 34.472376 -119.553400 281 10060ft 142kts
09-Oct-18 11:34 34.480347 -119.600428 281 10060ft 142kts
09-Oct-18 11:35 34.488284 -119.647372 281 10060ft 142kts
09-Oct-18 11:36 34.496143 -119.693971 281 10060ft 142kts
09-Oct-18 11:37 34.504058 -119.741012 281 10060ft 142kts
09-Oct-18 11:38 34.518615 -119.784303 309 10060ft 142kts
09-Oct-18 11:39 34.544245 -119.821001 310 10060ft 142kts
09-Oct-18 11:40 34.569412 -119.856859 310 9796ft 143kts
09-Oct-18 11:41 34.595586 -119.893555 302 9285ft 140kts
09-Oct-18 11:42 34.615658 -119.935417 307 8723ft 142kts
09-Oct-18 11:43 34.642373 -119.970584 315 8176ft 146kts
09-Oct-18 11:44 34.669746 -120.005969 311 7672ft 141kts
09-Oct-18 11:45 34.693403 -120.043872 301 6942ft 141kts
09-Oct-18 11:46 34.716665 -120.081799 306 6300ft 139kts
09-Oct-18 11:47 34.739159 -120.119848 302 5712ft 138kts
09-Oct-18 11:48 34.762639 -120.156580 314 5159ft 137kts
09-Oct-18 11:49 34.788959 -120.189706 312 4641ft 136kts
09-Oct-18 11:50 34.812317 -120.225503 304 4178ft 135kts
09-Oct-18 11:51 34.836410 -120.260686 316 3664ft 136kts
09-Oct-18 11:52 34.860279 -120.294784 306 3514ft 131kts
09-Oct-18 11:53 34.880592 -120.332480 290 3619ft 135kts
09-Oct-18 11:54 34.899501 -120.369333 327 3574ft 141kts
09-Oct-18 11:55 34.928044 -120.401418 311 3501ft 139kts
09-Oct-18 11:56 34.953157 -120.437953 312 3445ft 138kts
09-Oct-18 11:57 34.976032 -120.466145 317 3180ft 141kts
09-Oct-18 11:58 35.008813 -120.505623 312 2422ft 141kts
09-Oct-18 11:59 35.029408 -120.527772 324 1903ft 98kts
09-Oct-18 12:00 35.053571 -120.554909 313 1405ft 101kts
09-Oct-18 12:01 35.070130 -120.575637 314 1112ft 95kts
09-Oct-18 12:02 35.088432 -120.600036 307 621ft 77kts
09-Oct-18 12:03 35.100124 -120.619700 302 21ft 65kts
09-Oct-18 12:04 35.103200 -120.624210 33 17ft 0kts

Navigation Log

Ident Type
Flight plan parsing failed, navigation log unavailable